Time;durP1;ratioP1;P1;durP2;ratioP2;P2;SDS_P1;SDS_P2;PMS_P1;PMS_P2;Temp;Humidity;BMP_temperature;BMP_pressure;BME280_temperature;BME280_humidity;BME280_pressure;Samples;Min_cycle;Max_cycle;Signal;HPM_P1;HPM_P2
2023/08/20 00:01:28;;;;;;;3.38;2.90;;;16.10;99.90;;;;;;5134915;27;20074;-70
2023/08/20 00:03:55;;;;;;;4.25;3.20;;;16.00;99.90;;;;;;5116884;27;20051;-69
2023/08/20 00:06:22;;;;;;;4.30;2.83;;;16.00;99.90;;;;;;5134885;27;20039;-69
2023/08/20 00:08:48;;;;;;;4.25;2.50;;;15.90;99.90;;;;;;5116508;27;20051;-69
2023/08/20 00:11:14;;;;;;;3.72;2.45;;;16.00;99.90;;;;;;5116537;27;20043;-69
2023/08/20 00:13:40;;;;;;;8.25;4.60;;;15.90;99.90;;;;;;5134462;27;20078;-71
2023/08/20 00:16:07;;;;;;;4.13;2.50;;;15.90;99.90;;;;;;5116372;27;20047;-69
2023/08/20 00:18:33;;;;;;;3.90;2.53;;;15.90;99.90;;;;;;5134609;27;20043;-69
2023/08/20 00:20:59;;;;;;;4.95;2.90;;;15.80;99.90;;;;;;5134624;27;20079;-70
2023/08/20 00:23:26;;;;;;;3.33;2.55;;;15.80;99.90;;;;;;5134442;27;20103;-71
2023/08/20 00:25:52;;;;;;;4.60;3.17;;;15.80;99.90;;;;;;5134802;27;20043;-70
2023/08/20 00:28:20;;;;;;;3.47;2.33;;;15.70;99.90;;;;;;5134407;27;20112;-70
2023/08/20 00:30:46;;;;;;;3.72;2.90;;;15.70;99.90;;;;;;5134330;27;20467;-70
2023/08/20 00:33:12;;;;;;;3.72;2.60;;;15.70;99.90;;;;;;5116256;27;20051;-70
2023/08/20 00:35:38;;;;;;;3.28;2.83;;;15.70;99.90;;;;;;5116037;27;20101;-70
2023/08/20 00:38:04;;;;;;;3.08;2.45;;;15.60;99.90;;;;;;5098969;27;20463;-70
2023/08/20 00:40:31;;;;;;;2.30;2.10;;;15.60;99.90;;;;;;5134675;27;20047;-70
2023/08/20 00:42:57;;;;;;;2.85;2.25;;;15.60;99.90;;;;;;5133805;27;20466;-70
2023/08/20 00:45:23;;;;;;;2.30;2.10;;;15.60;99.90;;;;;;5134041;27;20149;-70
2023/08/20 00:47:49;;;;;;;2.40;2.20;;;15.50;99.90;;;;;;5116097;27;20079;-70
2023/08/20 00:50:16;;;;;;;4.25;2.38;;;15.50;99.90;;;;;;5133943;27;20051;-71
2023/08/20 00:52:42;;;;;;;3.10;2.42;;;15.50;99.90;;;;;;5134122;27;20055;-69
2023/08/20 00:55:10;;;;;;;5.28;3.00;;;15.50;99.90;;;;;;5133946;27;20043;-70
2023/08/20 00:57:37;;;;;;;4.03;2.65;;;15.50;99.90;;;;;;5134292;27;20392;-70
2023/08/20 01:00:08;;;;;;;3.80;2.75;;;15.50;99.90;;;;;;5133570;27;20047;-70
2023/08/20 01:02:34;;;;;;;4.10;3.47;;;15.50;99.90;;;;;;5133833;27;20380;-70
2023/08/20 01:05:01;;;;;;;5.13;3.47;;;15.40;99.90;;;;;;5133793;27;20080;-69
2023/08/20 01:07:30;;;;;;;7.22;4.05;;;15.40;99.90;;;;;;5133982;27;20050;-70
2023/08/20 01:10:10;;;;;;;3.55;3.22;;;15.30;99.90;;;;;;5133786;27;20039;-70
2023/08/20 01:12:37;;;;;;;4.38;2.85;;;15.30;99.90;;;;;;5133390;27;20503;-70
2023/08/20 01:15:03;;;;;;;6.10;3.05;;;15.30;99.90;;;;;;5133656;27;20039;-70
2023/08/20 01:17:29;;;;;;;4.72;2.95;;;15.30;99.90;;;;;;5134142;27;20054;-70
2023/08/20 01:19:55;;;;;;;5.88;2.88;;;15.30;99.90;;;;;;5133536;27;20047;-70
2023/08/20 01:22:43;;;;;;;5.55;2.95;;;15.30;99.90;;;;;;5115663;27;20055;-70
2023/08/20 01:25:32;;;;;;;5.97;3.78;;;15.30;99.90;;;;;;5133561;27;20046;-70
2023/08/20 01:28:27;;;;;;;6.88;3.42;;;15.30;99.90;;;;;;5115755;28;20557;-70
2023/08/20 01:30:56;;;;;;;6.63;3.40;;;15.30;99.90;;;;;;5133414;28;20047;-70
2023/08/20 01:33:22;;;;;;;5.53;3.13;;;15.30;99.90;;;;;;5133985;28;20043;-69
2023/08/20 01:35:48;;;;;;;9.85;4.28;;;15.20;99.90;;;;;;5133322;28;20553;-70
2023/08/20 01:38:13;;;;;;;6.50;4.13;;;15.20;99.90;;;;;;5114957;28;20126;-70
2023/08/20 01:40:39;;;;;;;5.90;4.18;;;15.20;99.90;;;;;;5133825;28;20089;-70
2023/08/20 01:43:05;;;;;;;8.65;5.55;;;15.20;99.90;;;;;;5133231;28;20047;-70
2023/08/20 01:45:30;;;;;;;5.95;4.30;;;15.20;99.90;;;;;;5115441;28;20440;-70
2023/08/20 01:47:56;;;;;;;6.22;4.45;;;15.20;99.90;;;;;;5115085;28;20074;-70
2023/08/20 01:50:22;;;;;;;6.07;4.38;;;15.20;99.90;;;;;;5133210;28;20087;-70
2023/08/20 01:52:48;;;;;;;8.55;5.00;;;15.20;99.90;;;;;;5133553;28;20090;-69
2023/08/20 01:55:14;;;;;;;9.70;4.72;;;15.20;99.90;;;;;;5133704;28;20062;-71
2023/08/20 01:57:39;;;;;;;7.47;4.57;;;15.30;99.90;;;;;;5133386;28;20043;-70
2023/08/20 02:00:06;;;;;;;5.38;4.47;;;15.20;99.90;;;;;;5133219;28;20497;-70
2023/08/20 02:02:32;;;;;;;10.35;6.63;;;15.20;99.90;;;;;;5133499;28;20054;-70
2023/08/20 02:04:58;;;;;;;5.43;4.82;;;15.20;99.90;;;;;;5115557;28;20051;-70
2023/08/20 02:07:24;;;;;;;10.10;5.45;;;15.20;99.90;;;;;;5133242;28;20043;-70
2023/08/20 02:09:49;;;;;;;9.68;5.40;;;15.20;99.90;;;;;;5133618;27;20039;-70
2023/08/20 02:12:15;;;;;;;7.75;4.63;;;15.30;99.90;;;;;;5137232;27;20460;-70
2023/08/20 02:14:41;;;;;;;5.93;4.65;;;15.20;99.90;;;;;;5136968;27;20401;-70
2023/08/20 02:17:07;;;;;;;7.85;5.32;;;15.20;99.90;;;;;;5136915;27;20043;-70
2023/08/20 02:19:33;;;;;;;5.43;4.88;;;14.80;99.90;;;;;;5137370;27;20051;-70
2023/08/20 02:21:59;;;;;;;9.18;5.70;;;15.20;99.90;;;;;;5136905;27;20486;-70
2023/08/20 02:24:25;;;;;;;9.77;5.20;;;15.10;99.90;;;;;;5136838;27;20045;-69
2023/08/20 02:26:50;;;;;;;8.80;5.28;;;15.10;99.90;;;;;;5136560;27;20043;-70
2023/08/20 02:29:16;;;;;;;7.43;5.03;;;15.10;99.90;;;;;;5137383;27;20043;-71
2023/08/20 02:31:42;;;;;;;6.93;5.88;;;15.10;99.90;;;;;;5119057;27;20506;-70
2023/08/20 02:34:08;;;;;;;8.48;5.65;;;15.10;99.90;;;;;;5136870;27;20123;-71
2023/08/20 02:36:33;;;;;;;8.98;6.50;;;15.10;99.90;;;;;;5136570;27;20466;-70
2023/08/20 02:38:59;;;;;;;9.27;6.63;;;15.10;99.90;;;;;;5136537;27;20126;-70
2023/08/20 02:41:24;;;;;;;8.68;6.45;;;15.10;99.90;;;;;;5118787;27;20050;-70
2023/08/20 02:43:50;;;;;;;8.60;6.18;;;15.10;99.90;;;;;;5136349;27;20526;-70
2023/08/20 02:46:16;;;;;;;9.77;7.18;;;15.10;99.90;;;;;;5118500;27;20051;-70
2023/08/20 02:48:41;;;;;;;10.48;6.28;;;15.10;99.90;;;;;;5136305;27;20134;-70
2023/08/20 02:51:07;;;;;;;7.30;6.60;;;15.20;99.90;;;;;;5114237;28;20140;-70
2023/08/20 02:53:33;;;;;;;9.75;7.00;;;15.20;99.90;;;;;;5116150;28;20052;-70
2023/08/20 02:55:58;;;;;;;8.43;6.32;;;15.20;99.90;;;;;;5114607;28;20113;-70
2023/08/20 02:58:24;;;;;;;9.85;6.93;;;15.10;99.90;;;;;;5114308;28;20054;-70
2023/08/20 03:00:50;;;;;;;10.05;6.57;;;15.10;99.90;;;;;;5115798;28;20060;-71
2023/08/20 03:03:16;;;;;;;9.07;7.63;;;15.10;99.90;;;;;;5115232;28;20079;-70
2023/08/20 03:05:42;;;;;;;10.63;6.53;;;15.10;99.90;;;;;;5114417;28;20055;-71
2023/08/20 03:08:08;;;;;;;8.88;6.43;;;15.10;99.90;;;;;;5115357;28;20042;-70
2023/08/20 03:10:34;;;;;;;10.63;6.75;;;15.10;99.90;;;;;;5114312;28;20043;-71
2023/08/20 03:13:01;;;;;;;7.97;6.25;;;15.10;99.90;;;;;;5114642;28;20043;-69
2023/08/20 03:15:30;;;;;;;10.45;6.90;;;15.20;99.90;;;;;;5115737;28;20074;-70
2023/08/20 03:17:56;;;;;;;7.38;6.38;;;15.10;99.90;;;;;;5114822;28;20373;-70
2023/08/20 03:20:22;;;;;;;9.25;7.43;;;15.10;99.90;;;;;;5115414;28;20050;-70
2023/08/20 03:22:48;;;;;;;10.63;6.93;;;15.10;99.90;;;;;;5114765;28;20559;-70
2023/08/20 03:25:13;;;;;;;10.80;6.93;;;15.00;99.90;;;;;;5115131;28;20129;-70
2023/08/20 03:27:39;;;;;;;13.43;7.32;;;15.10;99.90;;;;;;5115657;28;20116;-70
2023/08/20 03:30:05;;;;;;;12.82;7.15;;;15.00;99.90;;;;;;5115037;28;20046;-70
2023/08/20 03:32:32;;;;;;;8.57;7.00;;;15.10;99.90;;;;;;5115429;28;20472;-71
2023/08/20 03:34:58;;;;;;;10.18;7.13;;;15.10;99.90;;;;;;5115538;28;20050;-71
2023/08/20 03:37:25;;;;;;;12.57;7.78;;;15.10;99.90;;;;;;5113681;28;20058;-70
2023/08/20 03:39:52;;;;;;;9.88;7.30;;;15.00;99.90;;;;;;5114281;28;20087;-70
2023/08/20 03:42:17;;;;;;;9.07;7.85;;;15.00;99.90;;;;;;5114804;28;20089;-70
2023/08/20 03:44:43;;;;;;;8.43;7.53;;;15.00;99.90;;;;;;5113426;28;20048;-70
2023/08/20 03:47:09;;;;;;;9.00;7.28;;;15.00;99.90;;;;;;5114003;28;20043;-71
2023/08/20 03:49:35;;;;;;;11.75;7.05;;;15.00;99.90;;;;;;5114694;28;20200;-70
2023/08/20 03:52:01;;;;;;;10.27;8.20;;;15.00;99.90;;;;;;5127183;27;20047;-70
2023/08/20 03:54:29;;;;;;;7.55;6.78;;;15.00;99.90;;;;;;5135157;27;20043;-70
2023/08/20 03:56:55;;;;;;;10.32;7.60;;;15.00;99.90;;;;;;5135348;27;20039;-70
2023/08/20 03:59:21;;;;;;;8.68;6.55;;;14.90;99.90;;;;;;5135033;27;20122;-70
2023/08/20 04:01:46;;;;;;;7.00;6.20;;;14.90;99.90;;;;;;5134991;27;20093;-70
2023/08/20 04:04:12;;;;;;;9.95;6.35;;;14.90;99.90;;;;;;5135226;27;20051;-70
2023/08/20 04:06:38;;;;;;;9.43;7.32;;;14.90;99.90;;;;;;5134843;27;20111;-70
2023/08/20 04:09:03;;;;;;;7.85;6.40;;;14.80;99.90;;;;;;5116931;27;20448;-71
2023/08/20 04:11:29;;;;;;;8.02;6.30;;;14.80;99.90;;;;;;5115920;27;20504;-71
2023/08/20 04:13:55;;;;;;;9.52;7.35;;;14.80;99.90;;;;;;5134617;27;20051;-70
2023/08/20 04:16:21;;;;;;;9.07;6.75;;;14.70;99.90;;;;;;5134683;27;20046;-70
2023/08/20 04:18:46;;;;;;;11.52;7.10;;;14.80;99.90;;;;;;5134604;27;20047;-70
2023/08/20 04:21:13;;;;;;;11.52;7.10;;;14.70;99.90;;;;;;5134693;27;20055;-70
2023/08/20 04:23:41;;;;;;;10.13;7.43;;;14.80;99.90;;;;;;5134514;27;20522;-70
2023/08/20 04:26:07;;;;;;;6.47;5.38;;;14.80;99.90;;;;;;5134896;27;20047;-70
2023/08/20 04:28:33;;;;;;;9.45;7.65;;;14.80;99.90;;;;;;5134551;27;20077;-70
2023/08/20 04:31:00;;;;;;;8.95;6.45;;;14.80;99.90;;;;;;5117007;27;20348;-70
2023/08/20 04:33:26;;;;;;;9.23;6.90;;;14.80;99.90;;;;;;5133662;27;20118;-70
2023/08/20 04:35:52;;;;;;;11.40;6.47;;;14.80;99.90;;;;;;5134780;27;20096;-70
2023/08/20 04:38:18;;;;;;;7.45;6.57;;;14.80;99.90;;;;;;5116440;27;20078;-70
2023/08/20 04:40:47;;;;;;;7.53;6.75;;;14.80;99.90;;;;;;5099234;27;20075;-71
2023/08/20 04:43:13;;;;;;;9.07;6.65;;;14.80;99.90;;;;;;5134192;27;20089;-70
2023/08/20 04:45:39;;;;;;;9.18;6.40;;;14.80;99.90;;;;;;5116156;27;20035;-71
2023/08/20 04:48:05;;;;;;;8.82;5.55;;;14.70;99.90;;;;;;5134637;27;20103;-71
2023/08/20 04:50:30;;;;;;;10.05;6.78;;;14.70;99.90;;;;;;5133887;27;20127;-69
2023/08/20 04:52:59;;;;;;;11.40;5.65;;;14.80;99.90;;;;;;5134504;27;20534;-69
2023/08/20 04:55:25;;;;;;;8.75;6.25;;;14.80;99.90;;;;;;5116093;27;20455;-69
2023/08/20 04:57:51;;;;;;;9.40;6.30;;;14.80;99.90;;;;;;5134571;27;20035;-68
2023/08/20 05:00:17;;;;;;;8.80;7.03;;;14.80;99.90;;;;;;5115643;27;20042;-68
2023/08/20 05:02:42;;;;;;;8.98;6.78;;;14.80;99.90;;;;;;5116251;27;20357;-68
2023/08/20 05:05:08;;;;;;;9.77;6.18;;;14.90;99.90;;;;;;5133815;27;20046;-68
2023/08/20 05:07:34;;;;;;;7.63;6.00;;;14.90;99.90;;;;;;5134233;27;20435;-68
2023/08/20 05:10:00;;;;;;;9.07;6.57;;;14.90;99.90;;;;;;5133805;27;20046;-68
2023/08/20 05:12:26;;;;;;;8.90;6.72;;;14.90;99.90;;;;;;5115497;27;20054;-68
2023/08/20 05:14:51;;;;;;;11.05;6.95;;;14.90;99.90;;;;;;5134026;27;20395;-68
2023/08/20 05:17:17;;;;;;;10.85;6.78;;;15.00;99.90;;;;;;5115651;27;20050;-68
2023/08/20 05:19:43;;;;;;;10.32;6.78;;;14.90;99.90;;;;;;5134320;27;20122;-68
2023/08/20 05:22:10;;;;;;;8.30;7.45;;;15.00;99.90;;;;;;5134239;27;20047;-68
2023/08/20 05:24:36;;;;;;;9.73;6.57;;;15.10;99.90;;;;;;5133945;27;20050;-68
2023/08/20 05:27:17;;;;;;;8.60;6.65;;;15.10;99.90;;;;;;5115316;27;20100;-68
2023/08/20 05:29:43;;;;;;;8.75;7.82;;;15.20;99.90;;;;;;5133078;27;20445;-68
2023/08/20 05:32:09;;;;;;;10.32;8.57;;;15.20;99.90;;;;;;5115472;28;20039;-68
2023/08/20 05:34:35;;;;;;;12.77;7.25;;;15.30;99.90;;;;;;5133477;28;20444;-68
2023/08/20 05:37:00;;;;;;;11.18;7.95;;;15.40;99.90;;;;;;5133382;28;20082;-68
2023/08/20 05:39:26;;;;;;;11.93;7.32;;;15.50;99.90;;;;;;5133793;28;20051;-68
2023/08/20 05:41:53;;;;;;;7.03;6.13;;;15.50;99.90;;;;;;5115363;28;20074;-68
2023/08/20 05:44:19;;;;;;;11.45;8.45;;;15.50;99.90;;;;;;5134029;27;20361;-68
2023/08/20 05:46:45;;;;;;;10.70;8.85;;;15.70;99.90;;;;;;5137625;27;20042;-68
2023/08/20 05:49:12;;;;;;;13.35;9.20;;;15.70;99.90;;;;;;5137982;27;20482;-68
2023/08/20 05:51:37;;;;;;;10.52;8.52;;;15.80;99.90;;;;;;5137791;27;20059;-68
2023/08/20 05:54:03;;;;;;;10.80;8.50;;;15.80;99.90;;;;;;5138116;27;20388;-68
2023/08/20 05:56:29;;;;;;;10.93;8.25;;;16.00;99.90;;;;;;5137109;27;20103;-68
2023/08/20 05:58:54;;;;;;;11.18;8.75;;;16.00;99.90;;;;;;5119121;27;20049;-68
2023/08/20 06:01:20;;;;;;;14.40;8.73;;;16.10;99.90;;;;;;5119710;27;20123;-69
2023/08/20 06:03:46;;;;;;;9.90;7.38;;;16.10;99.90;;;;;;5118955;27;20452;-69
2023/08/20 06:06:11;;;;;;;8.85;7.28;;;16.20;99.90;;;;;;5137604;27;20055;-68
2023/08/20 06:08:37;;;;;;;9.63;7.85;;;16.30;99.90;;;;;;5137217;27;20047;-69
2023/08/20 06:11:03;;;;;;;9.90;8.25;;;16.40;99.90;;;;;;5137445;27;20035;-69
2023/08/20 06:13:28;;;;;;;12.98;8.98;;;16.50;99.90;;;;;;5137204;27;20486;-69
2023/08/20 06:15:54;;;;;;;11.50;7.68;;;16.50;99.90;;;;;;5136851;27;20047;-68
2023/08/20 06:18:19;;;;;;;12.50;8.88;;;16.70;99.90;;;;;;5137281;27;20039;-69
2023/08/20 06:20:45;;;;;;;10.00;7.78;;;16.80;99.90;;;;;;5137232;27;20527;-68
2023/08/20 06:23:12;;;;;;;14.23;8.30;;;16.80;99.90;;;;;;5101896;27;20416;-69
2023/08/20 06:25:37;;;;;;;10.05;6.93;;;16.90;99.90;;;;;;5136976;27;20051;-68
2023/08/20 06:28:03;;;;;;;10.13;8.02;;;17.00;99.90;;;;;;5136867;27;20043;-68
2023/08/20 06:30:29;;;;;;;11.07;7.07;;;17.10;99.90;;;;;;5136862;27;20035;-69
2023/08/20 06:32:55;;;;;;;8.35;6.93;;;17.20;99.90;;;;;;5137195;27;20447;-69
2023/08/20 06:35:20;;;;;;;8.18;7.30;;;17.30;99.90;;;;;;5137003;27;20122;-69
2023/08/20 06:37:46;;;;;;;12.52;7.15;;;17.40;99.90;;;;;;5136567;27;20039;-68
2023/08/20 06:40:13;;;;;;;11.55;6.88;;;17.50;99.90;;;;;;5136610;27;20095;-68
2023/08/20 06:42:39;;;;;;;10.18;6.53;;;17.60;99.90;;;;;;5118670;27;20043;-69
2023/08/20 06:45:05;;;;;;;10.15;6.28;;;17.70;99.90;;;;;;5136892;27;20535;-70
2023/08/20 06:47:31;;;;;;;9.50;6.07;;;17.80;99.90;;;;;;5136239;27;20396;-69
2023/08/20 06:49:57;;;;;;;11.18;6.32;;;18.00;99.90;;;;;;5118597;27;20050;-69
2023/08/20 06:52:22;;;;;;;11.55;5.88;;;18.00;99.90;;;;;;5136397;27;20059;-69
2023/08/20 06:54:48;;;;;;;8.75;6.82;;;18.20;99.90;;;;;;5136084;27;20047;-69
2023/08/20 06:57:14;;;;;;;7.53;5.85;;;18.30;99.90;;;;;;5135523;27;20043;-69
2023/08/20 06:59:39;;;;;;;8.93;5.93;;;18.50;99.90;;;;;;5136136;27;20464;-70
2023/08/20 07:02:05;;;;;;;11.82;5.85;;;18.60;99.90;;;;;;5117793;27;20045;-69
2023/08/20 07:04:33;;;;;;;6.28;4.95;;;18.90;99.90;;;;;;5136063;27;20099;-69
2023/08/20 07:06:59;;;;;;;8.45;4.60;;;19.70;99.90;;;;;;5101384;27;20043;-69
2023/08/20 07:09:24;;;;;;;8.93;4.20;;;21.10;99.90;;;;;;5135999;27;20528;-69
2023/08/20 07:11:50;;;;;;;6.47;3.58;;;22.70;99.90;;;;;;5118221;27;20458;-69
2023/08/20 07:14:15;;;;;;;6.78;3.95;;;24.10;99.90;;;;;;5117530;27;20108;-69
2023/08/20 07:16:41;;;;;;;6.40;3.28;;;25.10;99.90;;;;;;5136193;27;20477;-69
2023/08/20 07:19:07;;;;;;;7.13;4.18;;;26.10;99.90;;;;;;5135628;27;20043;-70
2023/08/20 07:21:33;;;;;;;5.25;3.08;;;26.90;99.90;;;;;;5135672;27;20046;-70
2023/08/20 07:23:58;;;;;;;5.15;2.95;;;27.60;99.90;;;;;;5135377;27;20036;-70
2023/08/20 07:26:24;;;;;;;11.05;4.18;;;28.30;99.90;;;;;;5135750;27;20049;-70
2023/08/20 07:28:56;;;;;;;5.97;2.85;;;28.70;99.90;;;;;;5135594;27;20485;-70
2023/08/20 07:31:22;;;;;;;8.50;2.90;;;29.40;99.90;;;;;;5136026;27;20043;-70
2023/08/20 07:33:52;;;;;;;8.07;4.00;;;29.90;99.90;;;;;;5135628;27;20054;-69
2023/08/20 07:36:21;;;;;;;9.27;3.38;;;29.80;99.90;;;;;;5135267;27;20039;-70
2023/08/20 07:38:47;;;;;;;9.10;2.83;;;30.30;99.90;;;;;;5135264;27;20043;-69
2023/08/20 07:41:13;;;;;;;6.97;3.03;;;30.70;99.90;;;;;;5135272;27;20546;-70
2023/08/20 07:43:39;;;;;;;8.13;3.13;;;30.70;99.80;;;;;;5135178;27;20049;-70
2023/08/20 07:46:06;;;;;;;6.82;2.78;;;31.00;99.10;;;;;;5117064;27;20050;-67
2023/08/20 07:48:32;;;;;;;9.32;2.50;;;31.20;98.40;;;;;;5135106;27;20114;-70
2023/08/20 07:50:58;;;;;;;9.18;2.70;;;31.80;98.10;;;;;;5134874;27;20081;-69
2023/08/20 07:53:23;;;;;;;3.80;2.22;;;31.80;97.40;;;;;;5135383;27;20086;-68
2023/08/20 07:55:49;;;;;;;5.03;2.00;;;32.10;96.90;;;;;;5134909;27;20494;-69
2023/08/20 07:58:15;;;;;;;5.80;2.30;;;32.40;96.50;;;;;;5134806;27;20046;-68
2023/08/20 08:00:40;;;;;;;6.20;2.25;;;32.50;96.00;;;;;;5134998;27;20043;-68
2023/08/20 08:03:06;;;;;;;3.92;2.13;;;32.80;95.80;;;;;;5134841;27;20049;-69
2023/08/20 08:05:32;;;;;;;7.20;2.50;;;32.90;95.30;;;;;;5134687;27;20100;-69
2023/08/20 08:07:58;;;;;;;6.47;2.38;;;32.70;94.90;;;;;;5115748;27;20055;-69
2023/08/20 08:10:23;;;;;;;5.35;2.22;;;33.00;94.70;;;;;;5134730;27;20046;-69
2023/08/20 08:12:49;;;;;;;6.70;2.58;;;32.60;94.20;;;;;;5099383;27;20079;-69
2023/08/20 08:15:15;;;;;;;5.20;2.03;;;32.80;94.30;;;;;;5134426;27;20078;-69
2023/08/20 08:17:40;;;;;;;3.72;1.95;;;33.20;94.00;;;;;;5134836;27;20039;-68
2023/08/20 08:20:06;;;;;;;4.20;1.80;;;33.40;93.60;;;;;;5134567;27;20099;-71
2023/08/20 08:22:32;;;;;;;3.60;2.13;;;33.80;93.30;;;;;;5116618;27;20051;-70
2023/08/20 08:24:58;;;;;;;5.90;1.98;;;33.90;93.00;;;;;;5116561;27;20091;-70
2023/08/20 08:27:23;;;;;;;5.53;2.08;;;34.10;92.50;;;;;;5134388;27;20055;-69
2023/08/20 08:29:50;;;;;;;5.95;2.40;;;34.00;92.20;;;;;;5134306;27;20050;-69
2023/08/20 08:32:16;;;;;;;4.70;2.40;;;34.00;92.20;;;;;;5134361;27;20046;-69
2023/08/20 08:34:41;;;;;;;5.13;2.33;;;34.20;91.90;;;;;;5134308;27;20463;-69
2023/08/20 08:37:07;;;;;;;4.93;2.00;;;34.20;91.50;;;;;;5116372;27;20042;-69
2023/08/20 08:39:33;;;;;;;6.68;2.00;;;34.30;91.50;;;;;;5134111;27;20085;-68
2023/08/20 08:42:05;;;;;;;4.05;1.75;;;34.40;91.40;;;;;;5133938;27;20047;-70
2023/08/20 08:44:36;;;;;;;4.40;1.70;;;34.40;90.80;;;;;;5133993;27;20047;-69
2023/08/20 08:47:03;;;;;;;4.15;2.00;;;34.60;90.90;;;;;;5133871;27;20126;-69
2023/08/20 08:49:30;;;;;;;4.35;1.77;;;34.30;91.10;;;;;;5115811;27;20055;-69
2023/08/20 08:51:59;;;;;;;6.60;2.20;;;34.20;90.80;;;;;;5133794;27;20062;-69
2023/08/20 08:54:26;;;;;;;6.30;2.00;;;34.10;88.50;;;;;;5134191;27;20050;-69
2023/08/20 08:56:53;;;;;;;3.60;2.00;;;34.00;90.80;;;;;;5134242;27;20062;-68
2023/08/20 08:59:19;;;;;;;5.68;2.83;;;33.70;90.50;;;;;;5133773;27;20043;-68
2023/08/20 09:01:45;;;;;;;5.47;1.67;;;34.00;90.60;;;;;;5098562;27;20043;-68
2023/08/20 09:04:11;;;;;;;5.55;2.65;;;34.20;90.40;;;;;;5134427;27;20059;-69
2023/08/20 09:06:54;;;;;;;3.38;1.75;;;33.80;90.10;;;;;;5115743;27;20513;-69
2023/08/20 09:09:21;;;;;;;4.88;1.70;;;33.00;86.70;;;;;;5115498;27;20449;-66
2023/08/20 09:11:48;;;;;;;6.28;2.22;;;33.50;90.50;;;;;;5134045;27;20031;-67
2023/08/20 09:14:27;;;;;;;5.85;1.85;;;33.60;90.30;;;;;;5081119;27;20047;-67
2023/08/20 09:17:00;;;;;;;5.30;1.85;;;33.20;88.70;;;;;;5133768;27;20481;-67
2023/08/20 09:19:30;;;;;;;7.00;2.17;;;33.40;90.20;;;;;;5132862;27;20096;-66
2023/08/20 09:21:58;;;;;;;3.67;1.73;;;33.40;89.70;;;;;;5115306;27;20500;-67
2023/08/20 09:24:45;;;;;;;2.97;1.33;;;33.30;90.00;;;;;;5133520;27;20050;-67
2023/08/20 09:27:12;;;;;;;4.72;1.50;;;33.30;87.90;;;;;;5133619;27;20067;-69
2023/08/20 09:29:48;;;;;;;5.07;1.48;;;33.10;88.70;;;;;;5133459;27;20122;-68
2023/08/20 09:32:21;;;;;;;3.47;1.60;;;32.90;87.60;;;;;;5133433;27;20047;-69
2023/08/20 09:34:51;;;;;;;4.70;1.73;;;32.50;89.90;;;;;;5133400;28;20039;-69
2023/08/20 09:37:19;;;;;;;6.30;1.70;;;32.90;89.20;;;;;;5114964;28;20050;-69
2023/08/20 09:39:45;;;;;;;3.20;1.42;;;32.70;89.20;;;;;;5115408;28;20054;-68
2023/08/20 09:42:11;;;;;;;7.07;2.13;;;32.80;90.00;;;;;;5133406;28;20043;-69
2023/08/20 09:44:42;;;;;;;5.47;1.95;;;33.00;89.20;;;;;;5133268;28;20479;-69
2023/08/20 09:47:12;;;;;;;4.25;2.00;;;33.00;88.70;;;;;;5133345;28;20039;-69
2023/08/20 09:49:40;;;;;;;4.45;1.73;;;33.50;88.50;;;;;;5115281;28;20050;-69
2023/08/20 09:52:15;;;;;;;3.42;1.85;;;33.60;90.00;;;;;;5132690;28;20073;-69
2023/08/20 09:54:50;;;;;;;5.10;2.00;;;33.30;89.60;;;;;;5133554;28;20057;-70
2023/08/20 09:57:39;;;;;;;5.97;1.90;;;32.00;88.50;;;;;;5133585;28;20047;-69
2023/08/20 10:00:09;;;;;;;2.22;1.50;;;30.50;88.00;;;;;;5122489;28;20062;-70
2023/08/20 10:02:36;;;;;;;4.68;1.73;;;30.10;90.50;;;;;;5133305;28;20130;-68
2023/08/20 10:05:05;;;;;;;3.63;1.95;;;29.70;91.10;;;;;;5133393;28;20218;-69
2023/08/20 10:07:31;;;;;;;3.28;1.45;;;30.00;91.30;;;;;;5115429;28;20107;-69
2023/08/20 10:10:00;;;;;;;3.05;1.65;;;30.30;91.10;;;;;;5133785;28;20040;-69
2023/08/20 10:12:27;;;;;;;6.63;1.73;;;30.90;90.70;;;;;;5132889;28;20047;-69
2023/08/20 10:14:54;;;;;;;2.38;1.42;;;31.40;90.90;;;;;;5133444;28;20139;-68
2023/08/20 10:17:21;;;;;;;3.63;1.40;;;31.20;90.90;;;;;;5133064;28;20039;-69
2023/08/20 10:19:47;;;;;;;3.60;1.42;;;31.40;90.00;;;;;;5133469;28;20055;-68
2023/08/20 10:22:13;;;;;;;3.65;1.52;;;31.40;90.60;;;;;;5133097;28;20043;-70
2023/08/20 10:24:48;;;;;;;4.03;1.55;;;31.20;90.20;;;;;;5133132;28;20095;-68
2023/08/20 10:27:26;;;;;;;2.58;1.38;;;31.40;88.80;;;;;;5133084;28;20047;-68
2023/08/20 10:29:55;;;;;;;4.85;1.80;;;31.60;90.30;;;;;;5133501;28;20043;-70
2023/08/20 10:32:45;;;;;;;3.85;1.65;;;31.90;89.70;;;;;;5135282;27;20131;-69
2023/08/20 10:35:12;;;;;;;5.45;1.63;;;32.10;89.00;;;;;;5137323;27;20098;-69
2023/08/20 10:37:39;;;;;;;3.88;1.98;;;32.40;90.50;;;;;;5136821;27;20091;-69
2023/08/20 10:40:06;;;;;;;5.15;1.85;;;32.30;90.40;;;;;;5136767;27;20495;-69
2023/08/20 10:42:39;;;;;;;3.67;1.50;;;32.30;90.20;;;;;;5137055;27;20130;-69
2023/08/20 10:45:08;;;;;;;4.10;1.50;;;32.40;90.20;;;;;;5137208;27;20043;-68
2023/08/20 10:47:48;;;;;;;4.45;1.70;;;32.50;89.70;;;;;;5136266;27;20485;-69
2023/08/20 10:50:18;;;;;;;4.53;1.58;;;32.60;88.80;;;;;;5136657;27;20058;-69
2023/08/20 10:52:55;;;;;;;6.93;2.35;;;32.40;88.80;;;;;;5117701;27;20058;-68
2023/08/20 10:55:24;;;;;;;2.83;1.73;;;32.10;88.30;;;;;;5136490;27;20062;-69
2023/08/20 10:57:59;;;;;;;3.95;1.65;;;31.80;90.20;;;;;;5101143;27;20051;-69
2023/08/20 11:00:25;;;;;;;4.78;1.67;;;31.20;89.40;;;;;;5136416;27;20100;-69
2023/08/20 11:02:52;;;;;;;4.13;1.40;;;30.40;90.30;;;;;;5136241;27;20047;-70
2023/08/20 11:05:19;;;;;;;3.53;1.60;;;30.00;90.70;;;;;;5136144;27;20482;-70
2023/08/20 11:07:49;;;;;;;2.95;1.52;;;29.70;90.80;;;;;;5118283;27;20039;-70
2023/08/20 11:10:15;;;;;;;5.90;1.85;;;29.50;90.80;;;;;;5136382;27;20039;-68
2023/08/20 11:12:43;;;;;;;2.72;1.65;;;29.30;90.90;;;;;;5136015;27;20122;-70
2023/08/20 11:15:10;;;;;;;2.03;1.50;;;29.00;90.90;;;;;;5135954;27;20043;-69
2023/08/20 11:17:41;;;;;;;3.58;1.58;;;28.90;90.90;;;;;;5117676;27;20540;-69
2023/08/20 11:20:07;;;;;;;4.85;2.05;;;28.70;90.90;;;;;;5118418;27;20126;-69
2023/08/20 11:22:33;;;;;;;4.78;1.90;;;28.60;91.20;;;;;;5135960;27;20047;-69
2023/08/20 11:25:00;;;;;;;3.85;1.60;;;28.70;91.70;;;;;;5118273;27;20035;-69
2023/08/20 11:27:29;;;;;;;2.80;1.60;;;28.70;91.60;;;;;;5117472;27;20039;-69
2023/08/20 11:29:56;;;;;;;3.28;1.67;;;28.70;92.10;;;;;;5135755;27;20054;-67
2023/08/20 11:32:23;;;;;;;4.97;1.50;;;28.70;91.20;;;;;;5135828;27;20058;-69
2023/08/20 11:34:49;;;;;;;3.60;1.65;;;28.50;91.40;;;;;;5135921;27;20414;-69
2023/08/20 11:37:23;;;;;;;2.83;1.40;;;28.40;91.70;;;;;;5135354;27;20035;-69
2023/08/20 11:39:49;;;;;;;2.33;1.35;;;28.30;91.60;;;;;;5117328;27;20039;-69
2023/08/20 11:42:15;;;;;;;3.30;1.83;;;28.20;91.90;;;;;;5135235;27;20047;-69
2023/08/20 11:44:46;;;;;;;3.22;1.40;;;28.10;91.50;;;;;;5135061;27;20439;-69
2023/08/20 11:47:16;;;;;;;3.75;1.23;;;28.20;91.50;;;;;;5135416;27;20043;-69
2023/08/20 11:49:43;;;;;;;3.35;1.67;;;28.20;91.70;;;;;;5135274;27;20054;-69
2023/08/20 11:52:09;;;;;;;3.15;1.30;;;28.10;91.60;;;;;;5116628;27;20051;-69
2023/08/20 11:54:36;;;;;;;2.55;1.50;;;28.00;91.50;;;;;;5135228;27;20091;-69
2023/08/20 11:57:07;;;;;;;2.33;1.23;;;28.00;91.40;;;;;;5134938;27;20095;-70
2023/08/20 11:59:33;;;;;;;5.22;1.83;;;27.80;91.30;;;;;;5117046;27;20051;-70
2023/08/20 12:02:01;;;;;;;3.47;1.92;;;27.80;91.30;;;;;;5135646;27;20045;-69
2023/08/20 12:04:28;;;;;;;3.95;1.27;;;27.80;91.30;;;;;;5134897;27;20122;-69
2023/08/20 12:07:08;;;;;;;2.42;1.45;;;28.00;91.60;;;;;;5135370;27;20043;-69
2023/08/20 12:09:34;;;;;;;2.47;1.70;;;28.10;92.10;;;;;;5134949;27;20104;-69
2023/08/20 12:12:01;;;;;;;1.60;1.00;;;28.10;91.70;;;;;;5134972;27;20047;-69
2023/08/20 12:14:27;;;;;;;3.60;1.63;;;28.10;91.40;;;;;;5116306;27;20043;-69
2023/08/20 12:16:55;;;;;;;1.98;1.60;;;28.20;91.70;;;;;;5116686;27;20103;-70
2023/08/20 12:19:21;;;;;;;1.60;1.25;;;28.10;91.40;;;;;;5116115;27;20043;-69
2023/08/20 12:21:46;;;;;;;3.45;1.63;;;28.20;91.10;;;;;;5134838;27;20095;-69
2023/08/20 12:24:12;;;;;;;2.83;1.70;;;28.20;91.30;;;;;;5134517;27;20513;-68
2023/08/20 12:26:40;;;;;;;1.77;1.23;;;28.20;91.00;;;;;;5134927;27;20039;-69
2023/08/20 12:29:07;;;;;;;3.08;1.38;;;27.90;91.20;;;;;;5116322;27;20043;-69
2023/08/20 12:31:33;;;;;;;2.00;1.40;;;27.90;91.00;;;;;;5134841;27;20046;-71
2023/08/20 12:33:59;;;;;;;2.80;1.10;;;28.00;91.00;;;;;;5134998;27;20043;-70
2023/08/20 12:36:25;;;;;;;2.70;1.20;;;28.00;91.00;;;;;;5116566;27;20104;-70
2023/08/20 12:38:51;;;;;;;1.52;1.30;;;28.00;91.00;;;;;;5134235;27;20047;-68
2023/08/20 12:41:16;;;;;;;5.40;1.40;;;28.10;91.20;;;;;;5134275;27;20043;-69
2023/08/20 12:43:42;;;;;;;3.15;1.80;;;28.20;90.60;;;;;;5099189;27;20405;-69
2023/08/20 12:46:08;;;;;;;1.45;1.00;;;28.10;90.60;;;;;;5133842;27;20118;-69